sensor_id;sensor_type;location;lat;lon;timestamp;P1;durP1;ratioP1;P2;durP2;ratioP2
62610;SDS011;48683;48.084;17.272;2024-01-30T04:22:01;25.92;;;14.77;;
62610;SDS011;48683;48.084;17.272;2024-01-30T04:24:26;28.95;;;14.98;;
62610;SDS011;48683;48.084;17.272;2024-01-30T10:02:42;22.35;;;14.35;;
62610;SDS011;48683;48.084;17.272;2024-01-30T10:05:08;20.93;;;12.67;;
62610;SDS011;48683;48.084;17.272;2024-01-30T10:07:33;22.30;;;13.38;;
62610;SDS011;48683;48.084;17.272;2024-01-30T10:09:59;20.70;;;14.63;;
62610;SDS011;48683;48.084;17.272;2024-01-30T10:12:27;25.83;;;13.23;;
62610;SDS011;48683;48.084;17.272;2024-01-30T10:14:52;25.02;;;13.30;;
62610;SDS011;48683;48.084;17.272;2024-01-30T10:17:19;23.80;;;13.25;;
62610;SDS011;48683;48.084;17.272;2024-01-30T10:19:46;21.50;;;12.85;;
62610;SDS011;48683;48.084;17.272;2024-01-30T10:22:11;23.08;;;13.80;;
62610;SDS011;48683;48.084;17.272;2024-01-30T10:24:37;21.20;;;11.00;;
62610;SDS011;48683;48.084;17.272;2024-01-30T10:27:02;21.50;;;13.95;;
62610;SDS011;48683;48.084;17.272;2024-01-30T10:29:27;22.40;;;14.57;;
62610;SDS011;48683;48.084;17.272;2024-01-30T10:34:42;22.65;;;14.77;;
62610;SDS011;48683;48.084;17.272;2024-01-30T10:37:11;24.07;;;14.07;;
62610;SDS011;48683;48.084;17.272;2024-01-30T10:39:40;23.15;;;12.85;;
62610;SDS011;48683;48.084;17.272;2024-01-30T10:42:06;21.48;;;12.98;;
62610;SDS011;48683;48.084;17.272;2024-01-30T10:47:29;20.92;;;13.20;;
62610;SDS011;48683;48.084;17.272;2024-01-30T10:49:55;20.25;;;13.30;;
62610;SDS011;48683;48.084;17.272;2024-01-30T10:52:21;23.17;;;13.75;;
62610;SDS011;48683;48.084;17.272;2024-01-30T10:54:47;19.65;;;13.57;;
62610;SDS011;48683;48.084;17.272;2024-01-30T10:57:14;20.58;;;13.70;;
62610;SDS011;48683;48.084;17.272;2024-01-30T10:59:40;20.45;;;14.15;;
62610;SDS011;48683;48.084;17.272;2024-01-30T11:02:06;21.10;;;13.77;;
62610;SDS011;48683;48.084;17.272;2024-01-30T11:04:37;21.05;;;12.65;;
62610;SDS011;48683;48.084;17.272;2024-01-30T11:07:13;21.23;;;13.02;;
62610;SDS011;48683;48.084;17.272;2024-01-30T11:09:38;21.50;;;13.25;;
62610;SDS011;48683;48.084;17.272;2024-01-30T11:12:03;21.87;;;13.53;;
62610;SDS011;48683;48.084;17.272;2024-01-30T11:14:29;19.05;;;13.40;;
62610;SDS011;48683;48.084;17.272;2024-01-30T11:16:58;21.17;;;13.05;;
62610;SDS011;48683;48.084;17.272;2024-01-30T11:19:24;20.63;;;13.18;;
62610;SDS011;48683;48.084;17.272;2024-01-30T11:21:51;24.08;;;13.40;;
62610;SDS011;48683;48.084;17.272;2024-01-30T11:24:21;21.88;;;14.20;;
62610;SDS011;48683;48.084;17.272;2024-01-30T11:26:48;24.83;;;13.90;;
62610;SDS011;48683;48.084;17.272;2024-01-30T11:29:13;20.00;;;13.50;;
62610;SDS011;48683;48.084;17.272;2024-01-30T11:31:38;18.92;;;13.40;;
62610;SDS011;48683;48.084;17.272;2024-01-30T11:34:03;22.33;;;12.90;;
62610;SDS011;48683;48.084;17.272;2024-01-30T11:36:30;21.60;;;12.95;;
62610;SDS011;48683;48.084;17.272;2024-01-30T11:38:57;20.50;;;12.75;;
62610;SDS011;48683;48.084;17.272;2024-01-30T11:41:22;21.63;;;13.90;;
62610;SDS011;48683;48.084;17.272;2024-01-30T11:43:52;19.40;;;13.52;;
62610;SDS011;48683;48.084;17.272;2024-01-30T11:46:17;22.27;;;13.70;;
62610;SDS011;48683;48.084;17.272;2024-01-30T11:48:43;23.83;;;14.67;;
62610;SDS011;48683;48.084;17.272;2024-01-30T11:51:08;20.43;;;13.93;;
62610;SDS011;48683;48.084;17.272;2024-01-30T11:53:33;22.13;;;14.60;;
62610;SDS011;48683;48.084;17.272;2024-01-30T11:55:58;22.27;;;13.20;;
62610;SDS011;48683;48.084;17.272;2024-01-30T11:58:26;21.93;;;13.47;;
62610;SDS011;48683;48.084;17.272;2024-01-30T12:00:55;20.95;;;13.55;;
62610;SDS011;48683;48.084;17.272;2024-01-30T12:03:20;17.83;;;12.40;;
62610;SDS011;48683;48.084;17.272;2024-01-30T12:05:46;23.95;;;14.20;;
62610;SDS011;48683;48.084;17.272;2024-01-30T12:08:15;22.90;;;14.73;;
62610;SDS011;48683;48.084;17.272;2024-01-30T12:10:40;21.65;;;13.85;;
62610;SDS011;48683;48.084;17.272;2024-01-30T12:13:05;23.87;;;13.60;;
62610;SDS011;48683;48.084;17.272;2024-01-30T12:15:30;21.77;;;13.55;;
62610;SDS011;48683;48.084;17.272;2024-01-30T12:18:03;23.13;;;12.70;;
62610;SDS011;48683;48.084;17.272;2024-01-30T12:20:29;20.17;;;12.05;;
62610;SDS011;48683;48.084;17.272;2024-01-30T12:22:54;17.60;;;11.00;;
62610;SDS011;48683;48.084;17.272;2024-01-30T12:25:20;18.80;;;11.13;;
62610;SDS011;48683;48.084;17.272;2024-01-30T12:27:46;15.18;;;10.55;;
62610;SDS011;48683;48.084;17.272;2024-01-30T12:30:12;16.50;;;10.80;;
62610;SDS011;48683;48.084;17.272;2024-01-30T12:32:42;17.48;;;11.77;;
62610;SDS011;48683;48.084;17.272;2024-01-30T12:35:09;16.38;;;10.55;;
62610;SDS011;48683;48.084;17.272;2024-01-30T12:39:59;18.73;;;12.02;;
62610;SDS011;48683;48.084;17.272;2024-01-30T12:42:25;18.17;;;12.27;;
62610;SDS011;48683;48.084;17.272;2024-01-30T12:44:51;15.35;;;10.35;;
62610;SDS011;48683;48.084;17.272;2024-01-30T12:47:16;18.53;;;11.43;;
62610;SDS011;48683;48.084;17.272;2024-01-30T12:49:42;18.15;;;11.50;;
62610;SDS011;48683;48.084;17.272;2024-01-30T12:52:09;18.83;;;10.73;;
62610;SDS011;48683;48.084;17.272;2024-01-30T12:54:34;19.17;;;11.90;;
62610;SDS011;48683;48.084;17.272;2024-01-30T12:56:59;19.03;;;11.40;;
62610;SDS011;48683;48.084;17.272;2024-01-30T12:59:24;21.40;;;11.90;;
62610;SDS011;48683;48.084;17.272;2024-01-30T13:01:49;16.35;;;11.27;;
62610;SDS011;48683;48.084;17.272;2024-01-30T13:04:15;20.17;;;11.13;;
62610;SDS011;48683;48.084;17.272;2024-01-30T13:06:41;18.38;;;11.82;;
62610;SDS011;48683;48.084;17.272;2024-01-30T13:09:06;18.38;;;11.60;;
62610;SDS011;48683;48.084;17.272;2024-01-30T13:11:32;17.42;;;11.57;;
62610;SDS011;48683;48.084;17.272;2024-01-30T13:13:57;16.70;;;11.40;;
62610;SDS011;48683;48.084;17.272;2024-01-30T13:16:22;15.83;;;11.13;;
62610;SDS011;48683;48.084;17.272;2024-01-30T13:18:48;17.05;;;12.43;;
62610;SDS011;48683;48.084;17.272;2024-01-30T13:21:13;18.60;;;12.10;;
62610;SDS011;48683;48.084;17.272;2024-01-30T13:23:38;16.73;;;11.23;;
62610;SDS011;48683;48.084;17.272;2024-01-30T13:26:04;17.27;;;11.63;;
62610;SDS011;48683;48.084;17.272;2024-01-30T13:28:29;15.20;;;10.85;;
62610;SDS011;48683;48.084;17.272;2024-01-30T13:30:54;15.70;;;9.77;;
62610;SDS011;48683;48.084;17.272;2024-01-30T13:33:19;12.37;;;8.27;;
62610;SDS011;48683;48.084;17.272;2024-01-30T13:35:44;11.43;;;7.93;;
62610;SDS011;48683;48.084;17.272;2024-01-30T13:38:10;13.13;;;7.93;;
62610;SDS011;48683;48.084;17.272;2024-01-30T13:40:35;12.13;;;7.17;;
62610;SDS011;48683;48.084;17.272;2024-01-30T13:43:00;11.07;;;7.43;;
62610;SDS011;48683;48.084;17.272;2024-01-30T13:45:25;13.57;;;7.93;;
62610;SDS011;48683;48.084;17.272;2024-01-30T13:47:51;11.80;;;8.38;;
62610;SDS011;48683;48.084;17.272;2024-01-30T13:50:16;15.20;;;9.63;;
62610;SDS011;48683;48.084;17.272;2024-01-30T13:52:42;18.75;;;11.05;;
62610;SDS011;48683;48.084;17.272;2024-01-30T13:55:07;19.55;;;11.65;;
62610;SDS011;48683;48.084;17.272;2024-01-30T13:57:32;16.58;;;10.27;;
62610;SDS011;48683;48.084;17.272;2024-01-30T14:00:00;18.08;;;11.10;;
62610;SDS011;48683;48.084;17.272;2024-01-30T14:02:25;15.00;;;10.50;;
62610;SDS011;48683;48.084;17.272;2024-01-30T14:04:51;18.37;;;11.57;;
62610;SDS011;48683;48.084;17.272;2024-01-30T14:07:16;18.17;;;10.97;;
62610;SDS011;48683;48.084;17.272;2024-01-30T14:09:43;19.38;;;10.85;;
62610;SDS011;48683;48.084;17.272;2024-01-30T14:12:08;16.90;;;10.60;;
62610;SDS011;48683;48.084;17.272;2024-01-30T14:14:33;17.27;;;10.57;;
62610;SDS011;48683;48.084;17.272;2024-01-30T14:16:58;21.67;;;10.60;;
62610;SDS011;48683;48.084;17.272;2024-01-30T14:19:24;15.43;;;10.75;;
62610;SDS011;48683;48.084;17.272;2024-01-30T14:21:49;16.33;;;10.70;;
62610;SDS011;48683;48.084;17.272;2024-01-30T14:24:15;18.23;;;10.63;;
62610;SDS011;48683;48.084;17.272;2024-01-30T14:26:40;16.00;;;10.10;;
62610;SDS011;48683;48.084;17.272;2024-01-30T14:29:05;14.45;;;9.88;;
62610;SDS011;48683;48.084;17.272;2024-01-30T14:31:30;18.57;;;10.30;;
62610;SDS011;48683;48.084;17.272;2024-01-30T14:33:55;15.03;;;9.93;;
62610;SDS011;48683;48.084;17.272;2024-01-30T14:36:20;15.47;;;9.43;;
62610;SDS011;48683;48.084;17.272;2024-01-30T14:38:46;14.63;;;9.93;;
62610;SDS011;48683;48.084;17.272;2024-01-30T14:41:11;16.57;;;9.37;;
62610;SDS011;48683;48.084;17.272;2024-01-30T14:43:36;17.73;;;9.80;;
62610;SDS011;48683;48.084;17.272;2024-01-30T14:46:02;18.40;;;10.18;;
62610;SDS011;48683;48.084;17.272;2024-01-30T14:48:27;18.30;;;10.27;;
62610;SDS011;48683;48.084;17.272;2024-01-30T14:50:53;15.30;;;9.75;;
62610;SDS011;48683;48.084;17.272;2024-01-30T14:53:18;15.87;;;10.57;;
62610;SDS011;48683;48.084;17.272;2024-01-30T14:55:43;14.70;;;10.40;;
62610;SDS011;48683;48.084;17.272;2024-01-30T14:58:08;17.43;;;10.97;;
62610;SDS011;48683;48.084;17.272;2024-01-30T15:00:33;20.25;;;10.88;;
62610;SDS011;48683;48.084;17.272;2024-01-30T15:03:03;19.55;;;11.85;;
62610;SDS011;48683;48.084;17.272;2024-01-30T15:05:29;14.00;;;10.37;;
62610;SDS011;48683;48.084;17.272;2024-01-30T15:07:54;16.63;;;11.07;;
62610;SDS011;48683;48.084;17.272;2024-01-30T15:10:20;17.40;;;10.77;;
62610;SDS011;48683;48.084;17.272;2024-01-30T15:12:45;19.17;;;12.43;;
62610;SDS011;48683;48.084;17.272;2024-01-30T15:15:10;20.73;;;12.30;;
62610;SDS011;48683;48.084;17.272;2024-01-30T15:17:35;16.30;;;11.67;;
62610;SDS011;48683;48.084;17.272;2024-01-30T15:20:00;19.00;;;11.93;;
62610;SDS011;48683;48.084;17.272;2024-01-30T15:22:26;15.63;;;10.53;;
62610;SDS011;48683;48.084;17.272;2024-01-30T15:24:51;19.45;;;11.90;;
62610;SDS011;48683;48.084;17.272;2024-01-30T15:27:16;17.13;;;10.97;;
62610;SDS011;48683;48.084;17.272;2024-01-30T15:29:41;24.53;;;12.10;;
62610;SDS011;48683;48.084;17.272;2024-01-30T15:32:06;18.23;;;11.80;;
62610;SDS011;48683;48.084;17.272;2024-01-30T15:34:32;24.60;;;12.07;;
62610;SDS011;48683;48.084;17.272;2024-01-30T15:36:57;18.13;;;12.10;;
62610;SDS011;48683;48.084;17.272;2024-01-30T15:39:22;17.57;;;11.20;;
62610;SDS011;48683;48.084;17.272;2024-01-30T15:41:47;18.63;;;11.77;;
62610;SDS011;48683;48.084;17.272;2024-01-30T15:44:13;16.25;;;10.90;;
62610;SDS011;48683;48.084;17.272;2024-01-30T15:46:38;23.73;;;12.30;;
62610;SDS011;48683;48.084;17.272;2024-01-30T15:49:03;17.63;;;11.43;;
62610;SDS011;48683;48.084;17.272;2024-01-30T15:51:29;22.60;;;14.65;;
62610;SDS011;48683;48.084;17.272;2024-01-30T15:53:54;22.08;;;13.35;;
62610;SDS011;48683;48.084;17.272;2024-01-30T15:56:19;23.00;;;14.73;;
62610;SDS011;48683;48.084;17.272;2024-01-30T15:58:44;27.87;;;17.67;;
62610;SDS011;48683;48.084;17.272;2024-01-30T16:01:15;34.92;;;23.30;;
62610;SDS011;48683;48.084;17.272;2024-01-30T16:03:40;24.90;;;16.25;;
62610;SDS011;48683;48.084;17.272;2024-01-30T16:06:05;29.27;;;19.17;;
62610;SDS011;48683;48.084;17.272;2024-01-30T16:08:30;24.27;;;15.57;;
62610;SDS011;48683;48.084;17.272;2024-01-30T16:10:55;24.70;;;16.37;;
62610;SDS011;48683;48.084;17.272;2024-01-30T16:13:20;25.33;;;15.60;;
62610;SDS011;48683;48.084;17.272;2024-01-30T16:15:46;26.47;;;16.90;;
62610;SDS011;48683;48.084;17.272;2024-01-30T16:18:11;26.58;;;16.30;;
62610;SDS011;48683;48.084;17.272;2024-01-30T16:20:36;29.23;;;18.30;;
62610;SDS011;48683;48.084;17.272;2024-01-30T16:23:01;24.77;;;16.70;;
62610;SDS011;48683;48.084;17.272;2024-01-30T16:25:26;26.67;;;18.40;;
62610;SDS011;48683;48.084;17.272;2024-01-30T16:27:52;33.13;;;19.10;;
62610;SDS011;48683;48.084;17.272;2024-01-30T16:30:17;29.95;;;19.30;;
62610;SDS011;48683;48.084;17.272;2024-01-30T16:32:43;33.85;;;20.80;;
62610;SDS011;48683;48.084;17.272;2024-01-30T16:35:08;35.85;;;21.67;;
62610;SDS011;48683;48.084;17.272;2024-01-30T16:37:33;32.77;;;21.07;;
62610;SDS011;48683;48.084;17.272;2024-01-30T16:39:59;34.03;;;20.65;;
62610;SDS011;48683;48.084;17.272;2024-01-30T16:47:43;31.45;;;20.58;;
62610;SDS011;48683;48.084;17.272;2024-01-30T16:50:08;40.88;;;22.83;;
62610;SDS011;48683;48.084;17.272;2024-01-30T16:52:34;35.88;;;20.50;;
62610;SDS011;48683;48.084;17.272;2024-01-30T17:15:51;33.22;;;19.60;;
62610;SDS011;48683;48.084;17.272;2024-01-30T17:18:16;31.15;;;19.63;;
62610;SDS011;48683;48.084;17.272;2024-01-30T17:20:43;33.40;;;19.38;;
62610;SDS011;48683;48.084;17.272;2024-01-30T17:23:08;35.28;;;20.50;;
62610;SDS011;48683;48.084;17.272;2024-01-30T17:25:35;32.67;;;20.30;;
62610;SDS011;48683;48.084;17.272;2024-01-30T17:28:01;34.30;;;18.65;;
62610;SDS011;48683;48.084;17.272;2024-01-30T19:19:25;34.38;;;20.83;;
62610;SDS011;48683;48.084;17.272;2024-01-30T19:21:50;38.08;;;22.20;;
62610;SDS011;48683;48.084;17.272;2024-01-30T19:24:17;36.78;;;20.27;;
62610;SDS011;48683;48.084;17.272;2024-01-30T19:26:43;41.78;;;23.95;;
62610;SDS011;48683;48.084;17.272;2024-01-30T19:39:29;42.58;;;24.55;;
62610;SDS011;48683;48.084;17.272;2024-01-30T19:41:54;41.13;;;23.35;;
62610;SDS011;48683;48.084;17.272;2024-01-30T19:44:19;39.25;;;23.20;;
62610;SDS011;48683;48.084;17.272;2024-01-30T19:46:45;41.28;;;22.38;;
62610;SDS011;48683;48.084;17.272;2024-01-30T19:49:11;40.63;;;23.83;;
62610;SDS011;48683;48.084;17.272;2024-01-30T19:51:38;37.53;;;22.40;;
62610;SDS011;48683;48.084;17.272;2024-01-30T20:22:30;40.03;;;23.58;;
62610;SDS011;48683;48.084;17.272;2024-01-30T20:24:56;41.08;;;23.30;;
62610;SDS011;48683;48.084;17.272;2024-01-30T20:27:22;42.47;;;25.00;;
62610;SDS011;48683;48.084;17.272;2024-01-30T20:29:49;38.35;;;23.58;;
